Time;durP1;ratioP1;P1;durP2;ratioP2;P2;SDS_P1;SDS_P2;PMS_P1;PMS_P2;Temp;Humidity;BMP_temperature;BMP_pressure;BME280_temperature;BME280_humidity;BME280_pressure;Samples;Min_cycle;Max_cycle;Signal;HPM_P1;HPM_P2
2022/07/09 00:01:54;;;;;;;14.73;4.40;;;;;;;15.78;84.41;102619.53;4950910;29;20207;-71
2022/07/09 00:04:19;;;;;;;12.77;4.57;;;;;;;15.76;83.20;102618.66;4951991;28;20539;-73
2022/07/09 00:06:45;;;;;;;11.67;4.23;;;;;;;15.77;83.81;102622.97;4952316;29;20931;-71
2022/07/09 00:09:10;;;;;;;10.87;4.23;;;;;;;15.78;83.86;102629.00;4951192;29;20221;-72
2022/07/09 00:11:36;;;;;;;12.40;4.70;;;;;;;15.79;83.80;102634.19;4952274;29;20559;-71
2022/07/09 00:14:01;;;;;;;10.90;4.17;;;;;;;15.78;84.39;102623.81;4951656;28;20608;-71
2022/07/09 00:16:27;;;;;;;9.10;4.57;;;;;;;15.78;84.11;102616.06;4983204;28;20658;-71
2022/07/09 00:18:52;;;;;;;12.37;4.43;;;;;;;15.77;84.34;102614.34;4951940;29;20192;-72
2022/07/09 00:21:18;;;;;;;15.07;4.47;;;;;;;15.74;84.36;102609.09;4951389;29;20221;-71
2022/07/09 00:23:43;;;;;;;10.90;4.87;;;;;;;15.71;84.52;102621.94;4951953;29;20227;-72
2022/07/09 00:26:09;;;;;;;10.57;3.90;;;;;;;15.71;84.41;102614.19;4951300;28;20209;-72
2022/07/09 00:28:34;;;;;;;11.67;4.90;;;;;;;15.68;84.64;102609.81;4952123;28;20220;-72
2022/07/09 00:30:59;;;;;;;11.93;4.23;;;;;;;15.66;84.77;102616.63;4971020;28;20196;-72
2022/07/09 00:33:25;;;;;;;11.33;4.67;;;;;;;15.62;84.98;102611.34;4960330;28;20189;-71
2022/07/09 00:35:50;;;;;;;11.87;4.83;;;;;;;15.58;85.96;102612.09;4952265;29;20204;-71
2022/07/09 00:38:16;;;;;;;11.67;4.67;;;;;;;15.58;85.57;102612.09;4951280;28;20247;-71
2022/07/09 00:40:41;;;;;;;13.97;4.53;;;;;;;15.52;85.79;102605.03;4951651;28;20332;-71
2022/07/09 00:43:20;;;;;;;9.07;4.57;;;;;;;15.50;85.71;102605.84;4951584;29;20209;-71
2022/07/09 00:45:46;;;;;;;11.57;5.27;;;;;;;15.50;85.49;102606.72;4951596;28;20209;-72
2022/07/09 00:48:13;;;;;;;13.83;4.97;;;;;;;15.47;85.99;102603.19;4951425;28;20738;-71
2022/07/09 00:50:40;;;;;;;11.00;4.63;;;;;;;15.44;86.10;102595.34;4950296;29;20261;-71
2022/07/09 00:53:08;;;;;;;14.30;5.40;;;;;;;15.43;86.57;102594.44;4951649;28;20185;-72
2022/07/09 00:55:35;;;;;;;10.10;4.30;;;;;;;15.42;86.64;102599.59;4950168;28;20220;-71
2022/07/09 00:58:02;;;;;;;12.40;4.80;;;;;;;15.39;86.58;102599.50;4951874;28;20185;-71
2022/07/09 01:00:27;;;;;;;9.33;4.43;;;;;;;15.42;86.62;102595.28;4951102;29;20181;-71
2022/07/09 01:02:53;;;;;;;10.27;4.57;;;;;;;15.39;86.73;102589.19;4951833;28;20546;-72
2022/07/09 01:05:19;;;;;;;14.13;5.37;;;;;;;15.40;86.64;102588.34;4949897;28;20268;-71
2022/07/09 01:07:44;;;;;;;12.10;4.70;;;;;;;15.36;87.26;102587.38;4951633;28;20199;-71
2022/07/09 01:10:10;;;;;;;13.17;5.30;;;;;;;15.36;87.40;102581.34;4949970;29;20240;-71
2022/07/09 01:12:35;;;;;;;10.33;4.30;;;;;;;15.38;87.68;102587.44;4951555;28;20761;-72
2022/07/09 01:15:01;;;;;;;14.97;4.97;;;;;;;15.34;87.56;102585.59;4950262;28;20219;-71
2022/07/09 01:17:26;;;;;;;13.67;5.37;;;;;;;15.33;88.00;102595.00;4951128;28;20192;-71
2022/07/09 01:19:52;;;;;;;12.97;5.00;;;;;;;15.32;87.97;102592.38;4951497;28;20216;-71
2022/07/09 01:22:17;;;;;;;13.90;4.70;;;;;;;15.36;87.83;102599.41;4950806;28;20584;-71
2022/07/09 01:24:43;;;;;;;11.63;5.00;;;;;;;15.37;88.51;102591.72;4982391;28;20284;-72
2022/07/09 01:27:08;;;;;;;14.13;4.93;;;;;;;15.37;87.85;102590.84;4951331;29;20181;-71
2022/07/09 01:29:34;;;;;;;13.00;5.30;;;;;;;15.38;88.18;102587.44;4951374;29;20585;-71
2022/07/09 01:31:59;;;;;;;14.00;4.93;;;;;;;15.40;87.93;102585.75;4982632;28;20197;-71
2022/07/09 01:34:25;;;;;;;14.10;5.23;;;;;;;15.43;87.41;102575.53;4950900;28;20291;-71
2022/07/09 01:36:50;;;;;;;14.20;4.93;;;;;;;15.37;88.25;102568.47;4951178;28;20857;-71
2022/07/09 01:39:16;;;;;;;16.90;5.50;;;;;;;15.38;88.17;102566.78;4950788;28;20189;-71
2022/07/09 01:41:41;;;;;;;12.00;4.77;;;;;;;15.34;88.24;102572.69;4951416;29;20192;-72
2022/07/09 01:44:08;;;;;;;13.47;5.10;;;;;;;15.36;88.35;102568.44;4950753;28;20182;-71
2022/07/09 01:46:34;;;;;;;12.57;5.07;;;;;;;15.39;88.13;102572.00;4951374;28;20185;-71
2022/07/09 01:48:59;;;;;;;12.07;5.10;;;;;;;15.41;88.27;102559.09;4950978;28;20784;-72
2022/07/09 01:51:25;;;;;;;13.13;5.07;;;;;;;15.41;88.14;102572.00;4950820;29;20193;-71
2022/07/09 01:53:50;;;;;;;11.00;4.57;;;;;;;15.39;88.30;102564.25;4951305;28;20643;-72
2022/07/09 01:56:16;;;;;;;11.60;5.10;;;;;;;15.38;89.16;102574.53;4981512;28;20228;-71
2022/07/09 01:58:41;;;;;;;12.27;5.23;;;;;;;15.38;89.02;102570.22;4954938;28;20184;-71
2022/07/09 02:01:07;;;;;;;14.33;4.80;;;;;;;15.39;88.52;102550.47;4954529;28;20185;-71
2022/07/09 02:03:33;;;;;;;10.67;4.70;;;;;;;15.38;88.69;102544.41;4954932;29;20220;-71
2022/07/09 02:05:58;;;;;;;13.97;5.40;;;;;;;15.34;88.06;102541.72;4954829;28;20209;-71
2022/07/09 02:08:25;;;;;;;11.30;4.63;;;;;;;15.32;88.39;102546.78;4954222;28;20209;-71
2022/07/09 02:10:50;;;;;;;13.40;4.90;;;;;;;15.28;88.92;102539.78;4954742;28;20192;-71
2022/07/09 02:13:16;;;;;;;10.93;4.83;;;;;;;15.29;88.48;102527.78;4985205;28;20670;-71
2022/07/09 02:15:41;;;;;;;11.77;4.90;;;;;;;15.27;88.22;102532.88;4954775;28;20201;-71
2022/07/09 02:18:07;;;;;;;13.47;5.07;;;;;;;15.30;88.70;102529.50;4954135;28;20193;-71
2022/07/09 02:20:32;;;;;;;12.57;5.37;;;;;;;15.27;88.90;102539.75;4954251;29;20223;-72
2022/07/09 02:22:58;;;;;;;10.97;4.97;;;;;;;15.28;89.13;102534.63;4954455;28;20193;-71
2022/07/09 02:25:23;;;;;;;11.70;5.07;;;;;;;15.25;89.03;102534.56;4985101;28;20584;-71
2022/07/09 02:27:51;;;;;;;10.53;5.50;;;;;;;15.25;88.99;102539.72;4954623;29;20174;-71
2022/07/09 02:30:17;;;;;;;12.17;5.10;;;;;;;15.22;89.47;102541.31;4953694;29;20272;-71
2022/07/09 02:32:43;;;;;;;14.00;4.90;;;;;;;15.26;89.07;102535.41;4954310;28;20307;-71
2022/07/09 02:35:08;;;;;;;14.57;4.40;;;;;;;15.25;89.60;102541.44;4953928;28;20690;-71
2022/07/09 02:37:34;;;;;;;12.20;4.90;;;;;;;15.26;89.62;102541.47;4954331;28;20581;-71
2022/07/09 02:39:59;;;;;;;12.20;4.80;;;;;;;15.24;89.10;102530.22;4954364;28;20189;-72
2022/07/09 02:42:25;;;;;;;8.53;4.77;;;;;;;15.20;89.67;102533.53;4985345;28;20197;-71
2022/07/09 02:44:50;;;;;;;11.50;5.00;;;;;;;15.24;89.38;102525.06;4954754;28;20213;-71
2022/07/09 02:47:16;;;;;;;13.13;4.93;;;;;;;15.23;89.38;102525.88;4954236;29;20240;-72
2022/07/09 02:49:41;;;;;;;15.57;5.00;;;;;;;15.20;90.03;102525.78;4985340;28;20209;-71
2022/07/09 02:52:07;;;;;;;11.93;5.90;;;;;;;15.23;89.69;102528.47;4954014;28;20651;-72
2022/07/09 02:54:33;;;;;;;14.63;4.63;;;;;;;15.19;90.02;102525.78;4985150;28;20588;-71
2022/07/09 02:56:59;;;;;;;12.87;4.70;;;;;;;15.21;89.43;102525.00;4953917;28;20208;-72
2022/07/09 02:59:25;;;;;;;10.97;4.53;;;;;;;15.16;89.79;102526.56;4953418;28;20193;-71
2022/07/09 03:01:51;;;;;;;9.80;4.90;;;;;;;15.13;90.16;102523.00;4984957;28;20197;-72
2022/07/09 03:04:16;;;;;;;10.13;4.53;;;;;;;15.13;90.35;102526.47;4953256;28;20209;-72
2022/07/09 03:06:42;;;;;;;10.37;4.90;;;;;;;15.15;90.15;102527.38;4984701;28;20280;-71
2022/07/09 03:09:08;;;;;;;9.67;4.23;;;;;;;15.20;90.04;102525.78;4952821;28;20229;-71
2022/07/09 03:11:33;;;;;;;9.10;5.17;;;;;;;15.18;90.43;102521.44;4953645;28;20217;-72
2022/07/09 03:13:58;;;;;;;11.83;4.97;;;;;;;15.20;90.61;102515.47;4953274;28;20185;-71
2022/07/09 03:16:24;;;;;;;11.40;4.87;;;;;;;15.21;90.36;102518.94;4984397;28;20200;-71
2022/07/09 03:18:49;;;;;;;11.73;4.87;;;;;;;15.14;90.65;102523.06;4953487;29;20209;-71
2022/07/09 03:21:15;;;;;;;12.20;4.63;;;;;;;15.11;90.82;102519.53;4952880;29;20197;-71
2022/07/09 03:23:40;;;;;;;11.57;5.07;;;;;;;15.09;90.93;102514.31;4948894;29;20198;-71
2022/07/09 03:26:06;;;;;;;10.13;4.43;;;;;;;15.09;90.65;102513.44;4951544;28;20593;-71
2022/07/09 03:28:33;;;;;;;14.73;5.60;;;;;;;15.10;90.53;102507.47;4967905;28;20220;-71
2022/07/09 03:30:59;;;;;;;13.40;5.23;;;;;;;15.14;90.46;102498.97;4952686;28;20189;-71
2022/07/09 03:33:25;;;;;;;8.93;4.27;;;;;;;15.10;90.83;102505.72;4953266;28;20252;-71
2022/07/09 03:35:50;;;;;;;11.77;4.60;;;;;;;15.13;90.41;102503.25;4953325;28;20216;-72
2022/07/09 03:38:16;;;;;;;15.17;5.60;;;;;;;15.15;90.46;102503.31;4952499;28;20778;-71
2022/07/09 03:40:41;;;;;;;12.07;5.30;;;;;;;15.14;90.79;102504.13;4952929;28;20725;-71
2022/07/09 03:43:07;;;;;;;12.90;5.47;;;;;;;15.12;91.05;102500.63;4952653;28;20189;-71
2022/07/09 03:45:32;;;;;;;17.13;5.97;;;;;;;15.07;91.44;102490.19;4952982;28;20212;-71
2022/07/09 03:47:58;;;;;;;19.37;5.93;;;;;;;15.02;91.55;102493.47;4952550;28;20192;-72
2022/07/09 03:50:23;;;;;;;9.63;4.90;;;;;;;15.07;91.87;102487.59;4952721;28;20180;-71
2022/07/09 03:52:49;;;;;;;11.80;5.87;;;;;;;15.05;91.55;102489.25;4952985;28;20181;-71
2022/07/09 03:55:15;;;;;;;18.20;6.53;;;;;;;14.97;91.85;102485.56;4952209;28;20240;-71
2022/07/09 03:57:40;;;;;;;12.60;5.60;;;;;;;15.01;91.97;102483.97;4953052;28;20221;-71
2022/07/09 04:00:06;;;;;;;17.23;5.70;;;;;;;15.02;92.03;102483.13;4983309;28;20189;-71
2022/07/09 04:02:38;;;;;;;12.83;5.43;;;;;;;15.03;91.38;102485.78;4953295;28;20622;-72
2022/07/09 04:05:04;;;;;;;13.87;5.97;;;;;;;14.99;92.59;102478.78;4952398;28;20288;-71
2022/07/09 04:07:29;;;;;;;15.00;6.30;;;;;;;15.02;92.72;102478.88;4952764;28;20661;-71
2022/07/09 04:09:55;;;;;;;18.17;6.47;;;;;;;15.05;92.52;102480.66;4952397;28;20319;-72
2022/07/09 04:12:21;;;;;;;12.23;5.70;;;;;;;15.08;92.48;102478.13;4983266;28;20285;-71
2022/07/09 04:14:46;;;;;;;13.53;6.03;;;;;;;15.11;92.11;102478.22;4952469;28;20212;-71
2022/07/09 04:17:12;;;;;;;13.13;5.70;;;;;;;15.11;92.50;102467.91;4951985;28;20189;-71
2022/07/09 04:19:38;;;;;;;13.27;5.83;;;;;;;15.11;92.69;102473.06;4951632;28;20182;-72
2022/07/09 04:22:04;;;;;;;12.27;6.67;;;;;;;15.12;92.14;102465.38;4951837;28;20650;-71
2022/07/09 04:24:29;;;;;;;13.10;5.90;;;;;;;15.11;92.83;102462.75;4952054;28;20229;-72
2022/07/09 04:26:55;;;;;;;14.00;6.10;;;;;;;15.11;92.30;102461.03;4983199;28;20189;-71
2022/07/09 04:29:21;;;;;;;12.10;6.17;;;;;;;15.16;92.52;102458.59;4951612;28;20260;-71
2022/07/09 04:31:46;;;;;;;17.13;6.80;;;;;;;15.22;92.78;102463.91;4983310;28;20192;-71
2022/07/09 04:34:12;;;;;;;13.40;5.60;;;;;;;15.30;91.90;102467.56;4951706;28;20248;-71
2022/07/09 04:36:37;;;;;;;13.80;6.77;;;;;;;15.33;91.95;102468.50;4951839;28;20216;-72
2022/07/09 04:39:03;;;;;;;13.30;5.60;;;;;;;15.42;91.94;102463.63;4951302;28;20221;-71
2022/07/09 04:41:29;;;;;;;10.43;5.90;;;;;;;15.52;91.91;102465.59;4952318;28;20745;-72
2022/07/09 04:43:55;;;;;;;12.07;6.33;;;;;;;15.57;91.37;102469.16;4951669;28;20284;-71
2022/07/09 04:46:26;;;;;;;13.70;6.00;;;;;;;15.65;91.49;102456.47;4950686;29;20193;-71
2022/07/09 04:48:52;;;;;;;13.63;6.00;;;;;;;15.70;91.47;102462.63;4950779;29;20240;-72
2022/07/09 04:51:17;;;;;;;11.10;5.43;;;;;;;15.73;91.26;102447.19;4982324;28;20173;-72
2022/07/09 04:53:43;;;;;;;12.03;5.33;;;;;;;15.71;91.16;102447.13;4951967;29;20221;-71
2022/07/09 04:56:08;;;;;;;9.23;5.20;;;;;;;15.69;91.59;102450.53;4951286;28;20208;-71
2022/07/09 04:58:34;;;;;;;9.97;5.30;;;;;;;15.67;91.55;102462.53;4951911;29;20178;-71
2022/07/09 05:01:00;;;;;;;13.60;5.73;;;;;;;15.72;91.10;102458.34;4951200;28;20189;-71
2022/07/09 05:03:25;;;;;;;12.43;5.13;;;;;;;15.73;91.30;102450.66;4982664;28;20193;-71
2022/07/09 05:05:52;;;;;;;10.47;5.23;;;;;;;15.70;91.68;102447.13;4966523;28;20217;-71
2022/07/09 05:08:18;;;;;;;12.07;5.67;;;;;;;15.68;91.51;102451.38;4950025;29;20284;-71
2022/07/09 05:10:44;;;;;;;9.87;5.27;;;;;;;15.69;91.53;102453.97;4951956;28;20196;-71
2022/07/09 05:13:09;;;;;;;12.03;5.43;;;;;;;15.73;91.20;102455.81;4951350;28;20193;-71
2022/07/09 05:15:35;;;;;;;10.20;5.60;;;;;;;15.75;91.20;102451.53;4982727;28;20280;-71
2022/07/09 05:18:01;;;;;;;11.37;5.07;;;;;;;15.67;91.58;102437.59;4951129;29;20185;-71
2022/07/09 05:20:26;;;;;;;12.00;4.90;;;;;;;15.72;91.98;102437.69;4951226;29;20193;-71
2022/07/09 05:22:52;;;;;;;11.27;5.23;;;;;;;15.68;91.94;102439.34;4930890;28;20204;-71
2022/07/09 05:25:17;;;;;;;11.67;5.00;;;;;;;15.83;91.32;102446.56;4943332;28;20216;-71
2022/07/09 05:27:47;;;;;;;8.03;4.97;;;;;;;15.87;91.44;102443.22;4941098;29;20272;-71
2022/07/09 05:30:14;;;;;;;11.90;5.57;;;;;;;15.92;91.68;102441.59;4950642;28;20860;-71
2022/07/09 05:32:41;;;;;;;10.97;4.50;;;;;;;16.05;91.03;102439.34;4946652;28;20185;-72
2022/07/09 05:35:07;;;;;;;10.63;4.63;;;;;;;16.11;91.00;102434.31;4947280;28;20209;-72
2022/07/09 05:37:34;;;;;;;9.20;4.93;;;;;;;16.18;90.57;102437.91;4950136;28;20185;-73
2022/07/09 05:40:05;;;;;;;8.33;4.13;;;;;;;16.24;90.89;102432.88;4956629;28;21000;-72
2022/07/09 05:42:32;;;;;;;8.97;4.87;;;;;;;16.28;90.89;102434.69;4923562;29;20169;-72
2022/07/09 05:44:58;;;;;;;9.33;4.40;;;;;;;16.39;90.54;102438.41;4922108;28;20240;-73
2022/07/09 05:47:24;;;;;;;9.77;4.70;;;;;;;16.53;90.03;102434.41;4937153;28;20944;-72
2022/07/09 05:49:49;;;;;;;7.43;4.60;;;;;;;16.62;89.90;102429.44;4952308;28;20216;-72
2022/07/09 05:52:15;;;;;;;9.30;4.13;;;;;;;16.61;89.54;102431.13;4922113;28;20956;-72
2022/07/09 05:54:40;;;;;;;8.40;4.10;;;;;;;16.57;89.69;102426.75;4923178;28;20980;-72
2022/07/09 05:57:06;;;;;;;7.57;3.67;;;;;;;16.59;89.23;102429.38;4925600;28;20300;-72
2022/07/09 05:59:31;;;;;;;10.40;4.43;;;;;;;16.61;89.19;102432.84;4923309;29;20185;-72
2022/07/09 06:01:56;;;;;;;9.07;4.20;;;;;;;16.63;89.16;102437.19;4923303;28;20295;-72
2022/07/09 06:04:22;;;;;;;9.53;4.23;;;;;;;16.60;89.69;102431.09;4922970;28;20222;-72
2022/07/09 06:06:48;;;;;;;7.57;4.10;;;;;;;16.65;89.88;102424.31;4952862;28;20193;-72
2022/07/09 06:09:13;;;;;;;7.30;3.97;;;;;;;16.69;90.08;102426.13;4936377;28;20217;-71
2022/07/09 06:11:39;;;;;;;7.27;4.40;;;;;;;16.75;89.64;102431.41;4929144;28;20224;-71
2022/07/09 06:14:04;;;;;;;8.80;4.17;;;;;;;16.82;89.25;102431.56;4985672;28;20232;-71
2022/07/09 06:16:30;;;;;;;8.30;4.30;;;;;;;16.87;88.72;102426.47;4985461;28;20224;-71
2022/07/09 06:18:55;;;;;;;6.43;3.80;;;;;;;16.88;89.31;102426.50;4954653;28;20185;-70
2022/07/09 06:21:20;;;;;;;11.13;4.20;;;;;;;16.93;89.16;102427.47;4984605;28;20282;-70
2022/07/09 06:23:46;;;;;;;5.90;3.93;;;;;;;16.87;89.10;102423.88;4950254;29;20725;-70
2022/07/09 06:26:11;;;;;;;7.87;4.00;;;;;;;16.82;89.41;102430.69;4953014;28;20213;-70
2022/07/09 06:28:38;;;;;;;7.10;3.93;;;;;;;16.88;89.46;102433.38;4954628;29;20272;-70
2022/07/09 06:31:03;;;;;;;9.17;4.20;;;;;;;16.98;89.18;102427.53;4952559;29;20177;-70
2022/07/09 06:33:29;;;;;;;8.57;4.40;;;;;;;17.11;88.64;102416.56;4954710;29;20239;-70
2022/07/09 06:35:54;;;;;;;7.43;4.27;;;;;;;17.20;88.32;102419.31;4954537;28;20205;-71
2022/07/09 06:38:20;;;;;;;7.50;4.73;;;;;;;17.22;88.13;102413.31;4953529;28;20191;-71
2022/07/09 06:40:45;;;;;;;7.23;4.00;;;;;;;17.35;87.90;102422.16;4952663;29;20201;-72
2022/07/09 06:43:12;;;;;;;9.60;4.10;;;;;;;17.30;87.67;102416.94;4953341;28;20193;-71
2022/07/09 06:45:44;;;;;;;7.23;3.90;;;;;;;17.43;87.42;102413.75;4953878;28;20213;-71
2022/07/09 06:48:09;;;;;;;7.03;4.17;;;;;;;17.55;86.72;102411.34;4953575;29;20721;-71
2022/07/09 06:50:34;;;;;;;5.80;4.13;;;;;;;17.70;86.55;102403.81;4953925;28;20862;-72
2022/07/09 06:53:00;;;;;;;7.37;4.20;;;;;;;17.81;86.03;102403.97;4952321;29;20193;-71
2022/07/09 06:55:25;;;;;;;8.63;3.80;;;;;;;17.90;85.36;102411.88;4984491;28;20271;-72
2022/07/09 06:57:51;;;;;;;7.77;3.73;;;;;;;17.89;85.42;102410.13;4953971;29;20189;-71
2022/07/09 07:17:39;;;;;;;7.40;4.50;;;;;;;18.46;83.70;102395.38;5167331;27;20583;-71
2022/07/09 07:20:05;;;;;;;7.97;4.57;;;;;;;18.38;83.28;102392.69;5129540;27;20198;-71
2022/07/09 07:22:31;;;;;;;6.30;4.93;;;;;;;18.53;82.36;102392.03;5126495;28;20261;-74
2022/07/09 07:24:56;;;;;;;6.20;4.90;;;;;;;18.30;82.86;102393.44;5127875;27;20262;-71
2022/07/09 07:27:22;;;;;;;6.67;5.70;;;;;;;18.17;83.28;102400.19;5147270;27;20210;-73
2022/07/09 07:29:47;;;;;;;6.63;5.93;;;;;;;17.99;84.47;102401.63;5125272;27;20265;-73
2022/07/09 07:32:12;;;;;;;7.63;5.53;;;;;;;18.04;84.44;102399.97;5159535;27;20185;-74
2022/07/09 07:34:38;;;;;;;6.67;5.13;;;;;;;18.22;83.81;102397.63;5168985;27;20174;-71
2022/07/09 07:37:04;;;;;;;7.37;5.20;;;;;;;18.34;83.00;102390.91;5150911;27;20852;-71
2022/07/09 07:39:29;;;;;;;9.67;5.17;;;;;;;18.43;83.08;102392.78;5147898;27;20700;-73
2022/07/09 07:41:55;;;;;;;5.67;4.70;;;;;;;18.44;82.27;102394.50;5147910;27;20189;-73
2022/07/09 07:44:22;;;;;;;7.47;4.67;;;;;;;18.62;81.82;102389.53;5147780;27;20213;-73
2022/07/09 07:46:48;;;;;;;7.10;4.50;;;;;;;18.75;80.91;102396.63;5147553;27;20215;-73
2022/07/09 07:49:13;;;;;;;6.13;3.97;;;;;;;18.71;81.45;102397.44;5147722;27;20194;-73
2022/07/09 07:51:39;;;;;;;7.07;3.80;;;;;;;18.67;80.97;102388.75;5147819;27;20186;-73
2022/07/09 07:54:04;;;;;;;4.40;3.33;;;;;;;18.97;80.85;102385.59;5129290;27;20634;-73
2022/07/09 07:56:32;;;;;;;5.33;3.60;;;;;;;19.37;79.03;102383.41;5128712;27;20226;-73
2022/07/09 07:58:57;;;;;;;5.33;3.33;;;;;;;19.44;78.60;102381.72;5147415;27;20211;-73
2022/07/09 08:01:23;;;;;;;6.80;3.20;;;;;;;19.54;76.65;102371.44;5128936;27;20198;-73
2022/07/09 08:03:49;;;;;;;4.63;3.13;;;;;;;19.90;75.48;102371.63;5147435;27;20178;-73
2022/07/09 08:06:14;;;;;;;5.07;2.90;;;;;;;20.23;74.55;102368.41;5147245;27;20722;-73
2022/07/09 08:08:39;;;;;;;6.50;3.27;;;;;;;20.20;74.39;102369.25;5147206;27;20213;-73
2022/07/09 08:11:05;;;;;;;6.97;3.00;;;;;;;20.19;74.17;102370.13;5147382;27;20190;-73
2022/07/09 08:13:30;;;;;;;4.83;2.77;;;;;;;20.16;73.29;102369.22;5128702;27;20564;-73
2022/07/09 08:15:56;;;;;;;4.43;2.77;;;;;;;20.09;74.10;102363.09;5147010;27;20282;-73
2022/07/09 08:18:21;;;;;;;5.10;2.80;;;;;;;19.91;74.78;102363.00;5134829;27;20222;-73
2022/07/09 08:20:49;;;;;;;3.20;2.53;;;;;;;20.05;74.26;102360.47;5133414;27;20185;-73
2022/07/09 08:23:14;;;;;;;4.53;2.33;;;;;;;20.19;73.87;102354.50;5133372;27;20190;-73
2022/07/09 08:25:40;;;;;;;5.23;2.70;;;;;;;20.62;73.40;102353.78;5141072;27;20183;-73
2022/07/09 08:28:05;;;;;;;6.47;2.67;;;;;;;20.80;71.63;102363.38;5133072;27;20234;-73
2022/07/09 08:30:31;;;;;;;3.20;2.20;;;;;;;20.70;71.52;102356.41;5140099;27;20190;-73
2022/07/09 08:32:56;;;;;;;5.43;2.70;;;;;;;21.25;70.19;102358.25;5126646;27;20223;-73
2022/07/09 08:35:22;;;;;;;5.53;2.57;;;;;;;21.28;70.00;102353.88;5153739;27;20209;-73
2022/07/09 08:37:48;;;;;;;4.33;2.23;;;;;;;21.20;70.58;102353.03;5135044;27;20210;-73
2022/07/09 08:40:13;;;;;;;5.67;2.23;;;;;;;21.06;69.91;102359.09;5154017;27;20238;-73
2022/07/09 08:42:39;;;;;;;3.90;2.13;;;;;;;21.43;68.59;102348.66;5135044;27;20670;-73
2022/07/09 08:45:08;;;;;;;3.40;2.17;;;;;;;21.05;69.90;102346.94;5153635;27;20631;-73
2022/07/09 08:47:34;;;;;;;3.00;2.00;;;;;;;20.95;69.51;102351.28;5153162;27;20608;-73
2022/07/09 08:50:01;;;;;;;2.70;2.20;;;;;;;20.87;70.07;102346.91;5134114;27;20193;-73
2022/07/09 08:52:27;;;;;;;4.07;2.33;;;;;;;20.82;70.33;102349.47;5153682;27;20242;-73
2022/07/09 08:54:53;;;;;;;4.33;2.57;;;;;;;20.44;72.69;102345.91;5134866;27;20580;-73
2022/07/09 08:57:19;;;;;;;4.00;2.30;;;;;;;20.43;72.80;102343.31;5153113;27;20202;-73
2022/07/09 08:59:44;;;;;;;3.07;1.97;;;;;;;20.52;71.71;102335.53;5146977;27;20207;-73
2022/07/09 09:02:11;;;;;;;5.50;2.47;;;;;;;20.64;71.87;102335.56;5132653;27;20187;-73
2022/07/09 09:04:39;;;;;;;4.13;2.23;;;;;;;20.64;72.62;102344.22;5132649;27;20191;-73
2022/07/09 09:07:15;;;;;;;2.70;2.00;;;;;;;20.70;70.17;102340.78;5132270;27;20247;-73
2022/07/09 09:09:41;;;;;;;4.30;2.17;;;;;;;20.69;70.32;102329.47;5136310;27;20731;-73
2022/07/09 09:12:07;;;;;;;3.93;2.20;;;;;;;21.39;68.95;102333.91;5125136;27;20258;-73
2022/07/09 09:14:33;;;;;;;4.27;2.47;;;;;;;21.81;66.32;102333.00;5084328;27;20186;-73
2022/07/09 09:17:11;;;;;;;3.83;2.10;;;;;;;21.50;66.06;102331.28;5119448;27;20230;-73
2022/07/09 09:19:38;;;;;;;3.87;2.27;;;;;;;21.31;67.57;102327.84;5119831;27;20201;-73
2022/07/09 09:22:05;;;;;;;3.63;2.10;;;;;;;22.14;65.73;102322.44;5120760;27;20217;-73
2022/07/09 09:24:31;;;;;;;3.53;2.20;;;;;;;22.22;65.20;102331.09;5145962;27;20191;-73
2022/07/09 09:26:58;;;;;;;3.97;1.90;;;;;;;22.33;64.68;102316.25;5113434;27;20254;-74
2022/07/09 09:29:23;;;;;;;4.10;2.03;;;;;;;22.62;64.55;102324.84;5139377;27;20210;-73
2022/07/09 09:31:50;;;;;;;2.57;1.67;;;;;;;22.42;62.00;102314.47;5140372;27;20191;-73
2022/07/09 09:34:17;;;;;;;3.17;1.90;;;;;;;22.52;63.71;102323.16;5111355;28;20184;-73
2022/07/09 09:36:54;;;;;;;2.67;1.97;;;;;;;23.11;62.63;102312.28;5110900;28;20199;-74
2022/07/09 09:39:24;;;;;;;3.57;2.03;;;;;;;23.39;60.85;102298.09;5111180;28;20321;-73
2022/07/09 09:42:01;;;;;;;7.07;2.30;;;;;;;22.97;62.01;102303.69;5111310;28;20274;-73
2022/07/09 09:44:39;;;;;;;2.63;1.80;;;;;;;23.56;60.34;102297.03;5111254;28;20175;-73
2022/07/09 09:47:07;;;;;;;5.60;1.70;;;;;;;23.78;58.35;102297.66;5099839;28;20221;-74
2022/07/09 09:49:34;;;;;;;3.83;1.75;;;;;;;24.32;57.32;102300.53;5070503;28;20204;-74
2022/07/09 09:52:10;;;;;;;2.75;1.73;;;;;;;24.67;55.78;102285.16;5085974;28;20179;-74
2022/07/09 09:54:37;;;;;;;3.28;2.60;;;;;;;24.63;57.55;102278.25;5070524;28;20196;-73
2022/07/09 09:57:09;;;;;;;4.70;2.28;;;;;;;24.46;56.16;102280.25;5070128;28;20216;-74
2022/07/09 09:59:38;;;;;;;2.53;1.52;;;;;;;24.43;53.90;102279.38;5070547;28;20178;-73
2022/07/09 10:02:11;;;;;;;2.88;1.25;;;;;;;24.60;54.34;102278.31;5070231;28;20212;-73
2022/07/09 10:04:38;;;;;;;3.40;1.52;;;;;;;24.50;54.13;102276.66;5070240;28;20185;-73
2022/07/09 10:07:05;;;;;;;1.73;1.10;;;;;;;24.53;53.41;102281.88;5069889;28;20245;-73
2022/07/09 10:09:30;;;;;;;3.05;1.27;;;;;;;25.04;53.48;102278.44;5082692;28;20254;-73
2022/07/09 10:11:55;;;;;;;3.00;1.30;;;;;;;25.14;52.61;102281.78;5087570;28;20654;-73
2022/07/09 10:14:24;;;;;;;3.85;1.30;;;;;;;24.97;52.95;102287.31;5090191;28;20176;-73
2022/07/09 10:16:53;;;;;;;3.35;1.50;;;;;;;25.31;53.38;102267.50;5089782;28;20212;-73
2022/07/09 10:19:30;;;;;;;3.25;1.40;;;;;;;24.91;53.36;102276.06;5090176;28;20666;-73
2022/07/09 10:21:57;;;;;;;3.58;1.65;;;;;;;24.00;55.45;102279.13;5071916;28;20188;-73
2022/07/09 10:24:30;;;;;;;4.38;1.40;;;;;;;24.07;55.64;102272.91;5089921;28;20719;-72
2022/07/09 10:27:06;;;;;;;2.90;1.58;;;;;;;24.75;54.35;102257.09;5105185;28;20173;-73
2022/07/09 10:29:32;;;;;;;2.58;1.50;;;;;;;24.86;54.57;102265.63;5089845;28;20716;-73
2022/07/09 10:31:58;;;;;;;5.97;1.60;;;;;;;25.12;53.21;102265.19;5088495;28;20658;-73
2022/07/09 10:34:46;;;;;;;2.13;1.40;;;;;;;24.97;52.01;102261.09;5082671;28;20192;-73
2022/07/09 10:37:11;;;;;;;4.90;1.77;;;;;;;25.29;51.70;102255.31;5089465;28;20208;-73
2022/07/09 10:39:36;;;;;;;4.65;1.55;;;;;;;25.40;51.94;102251.59;5089868;28;20231;-75
2022/07/09 10:42:04;;;;;;;2.25;1.10;;;;;;;25.28;52.63;102245.72;5089701;28;20192;-73
2022/07/09 10:44:40;;;;;;;2.45;1.42;;;;;;;25.69;51.93;102259.75;5089766;28;20191;-74
2022/07/09 10:47:06;;;;;;;2.10;1.20;;;;;;;25.88;50.48;102250.59;5089307;28;20271;-73
2022/07/09 10:49:36;;;;;;;2.35;1.25;;;;;;;25.41;51.72;102245.44;5089623;28;20326;-73
2022/07/09 10:52:03;;;;;;;3.55;1.33;;;;;;;24.97;53.57;102258.47;5089704;28;20603;-73
2022/07/09 10:54:28;;;;;;;3.40;1.40;;;;;;;24.77;51.67;102249.22;5089714;28;20648;-73
2022/07/09 10:56:54;;;;;;;2.47;1.23;;;;;;;25.22;50.73;102251.00;5089303;28;20302;-73
2022/07/09 10:59:21;;;;;;;5.68;1.20;;;;;;;25.29;51.75;102247.44;5089579;28;20196;-73
2022/07/09 11:01:47;;;;;;;3.10;1.02;;;;;;;25.10;49.48;102239.00;5089322;28;20214;-73
2022/07/09 11:04:23;;;;;;;5.35;1.60;;;;;;;24.72;51.51;102246.66;5089502;28;20259;-73
2022/07/09 11:06:49;;;;;;;2.58;1.20;;;;;;;25.38;50.48;102236.78;5089319;28;20180;-73
2022/07/09 11:09:15;;;;;;;6.55;1.30;;;;;;;25.59;50.47;102237.22;5067982;28;20175;-72
2022/07/09 11:11:44;;;;;;;3.25;1.38;;;;;;;25.50;50.21;102233.94;5085083;28;20188;-73
2022/07/09 11:14:11;;;;;;;2.95;1.15;;;;;;;25.20;50.51;102237.97;5070637;28;20195;-73
2022/07/09 11:16:37;;;;;;;3.10;1.23;;;;;;;24.98;51.77;102241.84;5089093;28;20203;-72
2022/07/09 11:19:16;;;;;;;2.30;1.50;;;;;;;25.56;50.17;102231.16;5071452;28;20200;-73
2022/07/09 11:21:41;;;;;;;2.47;1.15;;;;;;;25.03;50.21;102240.00;5089510;28;20184;-73
2022/07/09 11:24:24;;;;;;;2.88;1.10;;;;;;;24.82;51.48;102223.78;5089294;28;20668;-73
2022/07/09 11:26:50;;;;;;;1.45;0.85;;;;;;;24.52;50.07;102235.59;5089134;28;20186;-73
2022/07/09 11:29:19;;;;;;;2.33;0.88;;;;;;;25.36;49.51;102238.53;5089271;28;20549;-72
2022/07/09 11:31:49;;;;;;;1.83;1.08;;;;;;;25.29;49.38;102224.72;5104654;28;20248;-73
2022/07/09 11:34:16;;;;;;;2.95;0.93;;;;;;;25.82;50.08;102232.34;5080817;28;20181;-73
2022/07/09 11:36:43;;;;;;;1.75;1.05;;;;;;;25.77;49.23;102228.09;5089441;28;20248;-73